Time;durP1;ratioP1;P1;durP2;ratioP2;P2;SDS_P1;SDS_P2;PMS_P1;PMS_P2;Temp;Humidity;BMP_temperature;BMP_pressure;BME280_temperature;BME280_humidity;BME280_pressure;Samples;Min_cycle;Max_cycle;Signal;HPM_P1;HPM_P2
2023/04/02 00:00:18;;;;;;;14.90;12.27;;;7.90;99.90;;;;;;5020119;28;20907;-71
2023/04/02 00:02:48;;;;;;;12.33;11.00;;;7.90;99.90;;;;;;5020222;28;20553;-70
2023/04/02 00:05:54;;;;;;;14.20;12.27;;;7.80;99.90;;;;;;5015796;28;21096;-70
2023/04/02 00:08:28;;;;;;;16.03;14.37;;;7.80;99.90;;;;;;5020624;28;20871;-70
2023/04/02 00:10:58;;;;;;;15.73;12.83;;;7.80;99.90;;;;;;5023671;28;20484;-70
2023/04/02 00:13:31;;;;;;;15.77;14.17;;;7.70;99.90;;;;;;5023452;28;20495;-71
2023/04/02 00:15:59;;;;;;;10.33;9.50;;;7.70;99.90;;;;;;5023189;28;20465;-70
2023/04/02 00:18:27;;;;;;;13.60;12.30;;;7.80;99.90;;;;;;5022104;28;20535;-70
2023/04/02 00:21:03;;;;;;;15.57;13.90;;;7.70;99.90;;;;;;5021830;28;20466;-70
2023/04/02 00:23:29;;;;;;;18.27;13.30;;;7.70;99.90;;;;;;5019958;28;20464;-70
2023/04/02 00:25:58;;;;;;;13.17;11.70;;;7.70;99.90;;;;;;5023783;28;20491;-70
2023/04/02 00:28:25;;;;;;;15.80;14.37;;;7.70;99.90;;;;;;5025090;28;20502;-70
2023/04/02 00:30:54;;;;;;;15.63;13.90;;;7.60;99.90;;;;;;5025641;28;20511;-70
2023/04/02 00:33:24;;;;;;;16.90;14.60;;;7.60;99.90;;;;;;5022877;28;20472;-71
2023/04/02 00:35:53;;;;;;;14.00;12.77;;;7.60;99.90;;;;;;5023045;28;21080;-71
2023/04/02 00:38:24;;;;;;;13.73;12.53;;;7.60;99.90;;;;;;5020052;28;20465;-71
2023/04/02 00:40:54;;;;;;;12.20;11.03;;;7.50;99.90;;;;;;5019338;28;20460;-71
2023/04/02 00:43:24;;;;;;;14.80;10.83;;;7.50;99.90;;;;;;5018150;28;20511;-71
2023/04/02 00:45:56;;;;;;;11.23;10.17;;;7.40;99.90;;;;;;5022366;28;20488;-72
2023/04/02 00:48:44;;;;;;;14.00;12.63;;;7.30;99.90;;;;;;5019598;28;20472;-71
2023/04/02 00:51:17;;;;;;;13.07;11.77;;;7.30;99.90;;;;;;5020233;28;20985;-72
2023/04/02 00:53:46;;;;;;;14.57;13.13;;;7.30;99.90;;;;;;5018565;28;20461;-71
2023/04/02 00:56:19;;;;;;;19.00;13.63;;;7.30;99.90;;;;;;5018207;28;20465;-71
2023/04/02 00:58:51;;;;;;;14.57;13.07;;;7.30;99.90;;;;;;5022316;28;20480;-71
2023/04/02 01:01:20;;;;;;;20.63;13.43;;;7.30;99.90;;;;;;5023305;28;20483;-70
2023/04/02 01:03:56;;;;;;;11.70;10.60;;;7.40;99.90;;;;;;5014984;28;20461;-71
2023/04/02 01:06:28;;;;;;;15.13;12.20;;;7.30;99.90;;;;;;5020302;28;20500;-71
2023/04/02 01:09:10;;;;;;;14.00;12.50;;;7.20;99.90;;;;;;5017551;28;21043;-69
2023/04/02 01:12:02;;;;;;;14.57;13.10;;;7.20;99.90;;;;;;5020758;28;20465;-70
2023/04/02 01:14:42;;;;;;;15.37;13.73;;;7.20;99.90;;;;;;5016772;28;20461;-70
2023/04/02 01:17:25;;;;;;;15.40;13.80;;;7.20;99.90;;;;;;5020682;28;20464;-71
2023/04/02 01:20:27;;;;;;;13.50;12.10;;;7.20;99.90;;;;;;5021376;28;20476;-70
2023/04/02 01:23:04;;;;;;;14.27;12.40;;;7.20;99.90;;;;;;5018120;28;20549;-70
2023/04/02 01:25:43;;;;;;;14.97;13.33;;;7.20;99.90;;;;;;5016501;28;20471;-70
2023/04/02 01:28:18;;;;;;;15.17;12.93;;;7.10;99.90;;;;;;5017830;28;20471;-71
2023/04/02 01:30:51;;;;;;;14.23;12.73;;;7.00;99.90;;;;;;5018646;28;20467;-70
2023/04/02 01:33:19;;;;;;;13.30;12.07;;;7.10;99.90;;;;;;5022085;28;20487;-71
2023/04/02 01:35:51;;;;;;;14.90;13.40;;;7.00;99.90;;;;;;5019215;28;20498;-70
2023/04/02 01:38:24;;;;;;;14.10;12.60;;;6.90;99.90;;;;;;5018998;28;20501;-71
2023/04/02 01:40:58;;;;;;;13.33;12.10;;;6.80;99.90;;;;;;5015687;28;20889;-71
2023/04/02 01:43:32;;;;;;;15.60;12.60;;;6.90;99.90;;;;;;5016837;28;20456;-70
2023/04/02 01:46:06;;;;;;;14.00;12.50;;;6.90;99.90;;;;;;5022357;28;20479;-70
2023/04/02 01:48:33;;;;;;;16.90;14.07;;;6.80;99.90;;;;;;5024961;28;20461;-70
2023/04/02 01:51:02;;;;;;;15.23;13.83;;;6.80;99.90;;;;;;5023187;28;20469;-70
2023/04/02 01:53:30;;;;;;;14.10;12.43;;;6.80;99.90;;;;;;5018195;28;20496;-69
2023/04/02 01:56:00;;;;;;;15.97;13.70;;;6.80;99.90;;;;;;5015652;28;20503;-70
2023/04/02 01:58:30;;;;;;;15.23;13.80;;;6.80;99.90;;;;;;5019559;28;20458;-71
2023/04/02 02:01:03;;;;;;;15.57;13.90;;;6.80;99.90;;;;;;5019661;28;20465;-70
2023/04/02 02:03:30;;;;;;;15.40;13.80;;;6.80;99.90;;;;;;5020887;28;20975;-70
2023/04/02 02:05:58;;;;;;;14.73;13.10;;;6.80;99.90;;;;;;5018764;28;20498;-70
2023/04/02 02:08:33;;;;;;;16.90;15.30;;;6.90;99.90;;;;;;5022160;28;20461;-70
2023/04/02 02:11:00;;;;;;;17.60;15.70;;;6.80;99.90;;;;;;5022047;28;20471;-70
2023/04/02 02:13:27;;;;;;;17.03;13.70;;;6.70;99.90;;;;;;5016342;28;20818;-70
2023/04/02 02:15:57;;;;;;;22.23;16.63;;;6.50;99.90;;;;;;5018913;28;20470;-70
2023/04/02 02:18:26;;;;;;;19.73;16.97;;;6.60;99.90;;;;;;5021085;28;20986;-69
2023/04/02 02:20:54;;;;;;;24.27;18.00;;;6.50;99.90;;;;;;5016526;28;20460;-70
2023/04/02 02:23:22;;;;;;;20.43;18.17;;;6.60;99.90;;;;;;5023376;28;20498;-69
2023/04/02 02:25:49;;;;;;;18.97;16.50;;;6.60;99.90;;;;;;5019539;28;20491;-70
2023/04/02 02:28:19;;;;;;;20.37;15.40;;;6.50;99.90;;;;;;5019683;28;20829;-70
2023/04/02 02:30:48;;;;;;;17.57;15.77;;;6.40;99.90;;;;;;5017811;28;20468;-69
2023/04/02 02:33:19;;;;;;;20.00;17.17;;;6.40;99.90;;;;;;5021171;28;20465;-69
2023/04/02 02:35:53;;;;;;;18.00;16.00;;;6.40;99.90;;;;;;5017650;28;20817;-69
2023/04/02 02:38:38;;;;;;;18.30;16.33;;;6.30;99.90;;;;;;5018361;28;20468;-70
2023/04/02 02:41:10;;;;;;;19.20;17.23;;;6.30;99.90;;;;;;5020810;28;20468;-69
2023/04/02 02:43:41;;;;;;;16.60;15.00;;;6.30;99.90;;;;;;5021280;28;20721;-70
2023/04/02 02:46:14;;;;;;;17.80;16.13;;;6.30;99.90;;;;;;5019913;28;20491;-69
2023/04/02 02:48:42;;;;;;;16.10;14.67;;;6.20;99.90;;;;;;5018306;28;20482;-69
2023/04/02 02:51:19;;;;;;;15.50;14.10;;;6.20;99.90;;;;;;5017397;28;20540;-69
2023/04/02 02:53:51;;;;;;;18.70;16.87;;;6.30;99.90;;;;;;5013412;28;21118;-69
2023/04/02 02:56:21;;;;;;;20.40;18.43;;;6.20;99.90;;;;;;5020353;28;20501;-69
2023/04/02 02:58:50;;;;;;;22.43;19.37;;;6.30;99.90;;;;;;5022527;28;20871;-69
2023/04/02 03:01:18;;;;;;;22.90;20.50;;;6.30;99.90;;;;;;5016080;28;20464;-69
2023/04/02 03:03:46;;;;;;;22.43;20.20;;;6.30;99.90;;;;;;5019153;28;20486;-70
2023/04/02 03:06:19;;;;;;;21.43;18.10;;;6.30;99.90;;;;;;5020596;28;20529;-69
2023/04/02 03:08:52;;;;;;;17.60;15.27;;;6.30;99.90;;;;;;5017742;28;20477;-70
2023/04/02 03:11:25;;;;;;;19.47;16.93;;;6.20;99.90;;;;;;5023146;28;20692;-69
2023/04/02 03:13:58;;;;;;;14.50;12.93;;;6.20;99.90;;;;;;5017076;28;20469;-69
2023/04/02 03:16:33;;;;;;;17.00;15.40;;;6.20;99.90;;;;;;5021102;28;20551;-69
2023/04/02 03:19:05;;;;;;;20.20;18.30;;;6.20;99.90;;;;;;5019590;28;20471;-69
2023/04/02 03:21:39;;;;;;;18.17;16.47;;;6.20;99.90;;;;;;5018163;28;20491;-69
2023/04/02 03:24:12;;;;;;;18.77;16.87;;;6.20;99.90;;;;;;5018933;28;20464;-69
2023/04/02 03:26:43;;;;;;;16.77;15.07;;;6.10;99.90;;;;;;5023100;28;20494;-70
2023/04/02 03:29:18;;;;;;;15.47;14.07;;;6.10;99.90;;;;;;5023044;28;20466;-70
2023/04/02 03:31:48;;;;;;;17.97;16.47;;;6.10;99.90;;;;;;5025515;28;20464;-69
2023/04/02 03:34:22;;;;;;;15.20;13.90;;;6.00;99.90;;;;;;5021252;28;20487;-69
2023/04/02 03:36:57;;;;;;;16.13;14.57;;;6.00;99.90;;;;;;5018914;28;20464;-70
2023/04/02 03:39:28;;;;;;;14.47;13.27;;;5.90;99.90;;;;;;5018264;28;20494;-69
2023/04/02 03:41:58;;;;;;;15.57;13.97;;;5.90;99.90;;;;;;5023015;28;20489;-70
2023/04/02 03:44:30;;;;;;;14.13;12.83;;;5.90;99.90;;;;;;5022950;28;20455;-70
2023/04/02 03:47:01;;;;;;;13.63;12.20;;;5.90;99.90;;;;;;5020825;28;20487;-69
2023/04/02 03:49:35;;;;;;;14.50;13.07;;;5.90;99.90;;;;;;5022246;28;20807;-70
2023/04/02 03:52:10;;;;;;;14.60;13.20;;;5.90;99.90;;;;;;5023491;28;20460;-69
2023/04/02 03:54:37;;;;;;;15.90;14.27;;;5.80;99.90;;;;;;5023114;28;20839;-70
2023/04/02 03:57:07;;;;;;;14.43;13.03;;;5.90;99.90;;;;;;5025190;28;21001;-69
2023/04/02 03:59:40;;;;;;;13.90;12.50;;;5.90;99.90;;;;;;5020936;28;20470;-71
2023/04/02 04:02:19;;;;;;;15.90;13.67;;;6.00;99.90;;;;;;5024494;28;20918;-69
2023/04/02 04:04:48;;;;;;;16.20;14.57;;;5.90;99.90;;;;;;5020931;28;20820;-70
2023/04/02 04:07:20;;;;;;;17.87;15.40;;;5.90;99.90;;;;;;5021757;28;20496;-70
2023/04/02 04:09:51;;;;;;;15.80;13.37;;;6.00;99.90;;;;;;5023271;28;20463;-70
2023/04/02 04:12:27;;;;;;;18.27;13.87;;;6.10;99.90;;;;;;5017962;28;20493;-69
2023/04/02 04:14:59;;;;;;;15.43;13.80;;;6.00;99.90;;;;;;5022681;28;20468;-70
2023/04/02 04:17:33;;;;;;;17.03;12.07;;;6.00;99.90;;;;;;5019532;28;21007;-70
2023/04/02 04:20:10;;;;;;;12.17;10.97;;;6.00;99.90;;;;;;5021632;28;20457;-70
2023/04/02 04:22:40;;;;;;;13.60;11.90;;;6.00;99.90;;;;;;5025263;28;20467;-69
2023/04/02 04:25:19;;;;;;;14.37;12.90;;;5.90;99.90;;;;;;5025295;28;20480;-69
2023/04/02 04:27:55;;;;;;;16.93;15.20;;;5.90;99.90;;;;;;5017629;28;21072;-70
2023/04/02 04:30:26;;;;;;;18.40;15.23;;;6.00;99.90;;;;;;5019751;28;20472;-69
2023/04/02 04:33:00;;;;;;;17.30;14.60;;;6.00;99.90;;;;;;5014280;28;20464;-70
2023/04/02 04:35:31;;;;;;;21.70;15.87;;;5.90;99.90;;;;;;5021115;28;20492;-69
2023/04/02 04:38:04;;;;;;;15.33;13.73;;;5.90;99.90;;;;;;5025749;28;20461;-70
2023/04/02 04:40:35;;;;;;;14.60;13.00;;;5.90;99.90;;;;;;5023191;28;20966;-69
2023/04/02 04:43:05;;;;;;;18.23;14.43;;;5.90;99.90;;;;;;5023739;28;20611;-70
2023/04/02 04:45:41;;;;;;;18.43;11.17;;;5.80;99.90;;;;;;5020145;28;20999;-69
2023/04/02 04:48:14;;;;;;;14.23;12.73;;;5.80;99.90;;;;;;5020818;28;20948;-70
2023/04/02 04:50:48;;;;;;;14.33;12.20;;;5.70;99.90;;;;;;5024010;28;20878;-70
2023/04/02 04:53:20;;;;;;;20.40;13.90;;;5.60;99.90;;;;;;5022508;28;20500;-69
2023/04/02 04:55:49;;;;;;;18.00;14.80;;;5.70;99.90;;;;;;5022013;28;20691;-70
2023/04/02 04:58:23;;;;;;;17.83;14.50;;;5.70;99.90;;;;;;5020801;28;20805;-69
2023/04/02 05:00:58;;;;;;;21.10;13.23;;;5.60;99.90;;;;;;5025801;28;20457;-69
2023/04/02 05:03:30;;;;;;;14.50;11.60;;;5.50;99.90;;;;;;5020650;28;20464;-69
2023/04/02 05:06:03;;;;;;;16.53;13.57;;;5.50;99.90;;;;;;5020161;28;20480;-68
2023/04/02 05:08:36;;;;;;;19.60;13.93;;;5.50;99.90;;;;;;5023130;28;20497;-69
2023/04/02 05:11:07;;;;;;;16.93;12.87;;;5.50;99.90;;;;;;5015622;28;20468;-70
2023/04/02 05:13:39;;;;;;;16.53;12.73;;;5.50;99.90;;;;;;5023198;28;20472;-70
2023/04/02 05:16:13;;;;;;;17.30;14.37;;;5.40;99.90;;;;;;5019394;28;20984;-68
2023/04/02 05:18:43;;;;;;;14.83;11.67;;;5.40;99.90;;;;;;5020815;28;20464;-70
2023/04/02 05:21:17;;;;;;;12.90;10.27;;;5.50;99.90;;;;;;5022695;28;20457;-70
2023/04/02 05:23:50;;;;;;;11.00;10.00;;;5.50;99.90;;;;;;5023270;28;20473;-69
2023/04/02 05:26:20;;;;;;;16.33;11.97;;;5.30;99.90;;;;;;5025515;28;20487;-70
2023/04/02 05:28:53;;;;;;;21.33;11.87;;;5.30;99.90;;;;;;5021897;28;20492;-69
2023/04/02 05:31:24;;;;;;;13.97;11.33;;;5.40;99.90;;;;;;5023833;28;20495;-70
2023/04/02 05:33:52;;;;;;;13.97;12.50;;;5.50;99.90;;;;;;5020732;28;20480;-68
2023/04/02 05:36:22;;;;;;;16.37;14.13;;;5.50;99.90;;;;;;5024068;28;20468;-69
2023/04/02 05:38:52;;;;;;;28.00;15.43;;;5.50;99.90;;;;;;5018815;28;20473;-69
2023/04/02 05:41:26;;;;;;;13.70;11.77;;;5.50;99.90;;;;;;5025111;28;20963;-69
2023/04/02 05:44:01;;;;;;;17.90;14.30;;;5.50;99.90;;;;;;5014634;28;20470;-68
2023/04/02 05:46:32;;;;;;;15.67;14.00;;;5.40;99.90;;;;;;5023379;28;20543;-69
2023/04/02 05:49:00;;;;;;;14.70;11.97;;;5.50;99.90;;;;;;5017529;28;20850;-69
2023/04/02 05:51:38;;;;;;;13.87;10.70;;;5.50;99.90;;;;;;5023571;28;20489;-69
2023/04/02 05:54:17;;;;;;;17.57;11.30;;;5.40;99.90;;;;;;5017395;28;20507;-70
2023/04/02 05:56:47;;;;;;;16.20;14.20;;;5.40;99.90;;;;;;5022332;28;20563;-69
2023/04/02 05:59:21;;;;;;;24.33;18.80;;;5.40;99.90;;;;;;5019018;28;20468;-68
2023/04/02 06:01:50;;;;;;;24.53;19.13;;;5.40;99.90;;;;;;5028600;28;20464;-70
2023/04/02 06:04:23;;;;;;;24.23;16.17;;;5.50;99.90;;;;;;5018078;28;20998;-69
2023/04/02 06:06:57;;;;;;;26.37;15.20;;;5.50;99.90;;;;;;5017274;28;20489;-69
2023/04/02 06:09:34;;;;;;;22.57;17.10;;;5.40;99.90;;;;;;5022523;28;20460;-69
2023/04/02 06:12:13;;;;;;;23.10;16.60;;;5.40;99.90;;;;;;5021420;28;20496;-70
2023/04/02 06:14:40;;;;;;;16.70;14.23;;;5.20;99.90;;;;;;5020383;28;21247;-70
2023/04/02 06:17:06;;;;;;;19.43;16.17;;;5.10;99.90;;;;;;5020852;28;20463;-69
2023/04/02 06:19:39;;;;;;;21.30;16.90;;;5.00;99.90;;;;;;5017162;28;20556;-70
2023/04/02 06:22:16;;;;;;;21.30;14.07;;;5.10;99.90;;;;;;5018598;28;20462;-69
2023/04/02 06:24:47;;;;;;;23.40;15.83;;;5.10;99.90;;;;;;5018248;28;20478;-69
2023/04/02 06:27:21;;;;;;;22.97;17.40;;;5.10;99.90;;;;;;5018842;28;20476;-69
2023/04/02 06:29:51;;;;;;;18.57;13.90;;;5.20;99.90;;;;;;5018281;28;20997;-70
2023/04/02 06:32:22;;;;;;;16.80;13.20;;;5.10;99.90;;;;;;5021304;28;20987;-68
2023/04/02 06:34:50;;;;;;;19.20;14.17;;;5.10;99.90;;;;;;5019196;28;20492;-69
2023/04/02 06:37:23;;;;;;;22.87;15.20;;;5.10;99.90;;;;;;5017826;28;20485;-69
2023/04/02 06:39:51;;;;;;;22.20;14.47;;;5.10;99.90;;;;;;5014198;28;20478;-69
2023/04/02 06:42:22;;;;;;;22.47;16.47;;;4.90;99.90;;;;;;5017131;28;20496;-69
2023/04/02 06:44:49;;;;;;;22.53;16.20;;;4.90;99.90;;;;;;5021769;28;20479;-69
2023/04/02 06:47:26;;;;;;;21.67;16.43;;;4.90;99.90;;;;;;5017727;28;20559;-69
2023/04/02 06:50:00;;;;;;;20.80;14.53;;;5.00;99.90;;;;;;5016493;28;20478;-69
2023/04/02 06:52:30;;;;;;;17.73;14.90;;;5.00;99.90;;;;;;5019408;28;20467;-69
2023/04/02 06:54:59;;;;;;;14.50;13.00;;;5.10;99.90;;;;;;5020135;28;20466;-69
2023/04/02 06:57:26;;;;;;;21.80;15.43;;;5.00;99.90;;;;;;5021975;28;20529;-69
2023/04/02 06:59:53;;;;;;;18.50;15.03;;;5.10;99.90;;;;;;5025756;28;20548;-68
2023/04/02 07:02:27;;;;;;;19.50;15.40;;;5.10;99.90;;;;;;5023199;28;20874;-69
2023/04/02 07:05:01;;;;;;;20.23;15.63;;;5.00;99.90;;;;;;5030244;28;20457;-69
2023/04/02 07:07:29;;;;;;;19.40;17.20;;;5.00;99.90;;;;;;5018481;28;20488;-69
2023/04/02 07:09:56;;;;;;;24.00;17.50;;;5.00;99.90;;;;;;5023328;28;20494;-69
2023/04/02 07:12:26;;;;;;;26.67;19.70;;;5.10;99.90;;;;;;5025394;28;20515;-69
2023/04/02 07:14:53;;;;;;;32.07;21.57;;;5.20;99.90;;;;;;5025278;28;20924;-69
2023/04/02 07:17:21;;;;;;;30.17;20.80;;;5.20;99.90;;;;;;5026958;28;20531;-69
2023/04/02 07:19:50;;;;;;;33.37;20.63;;;5.20;99.90;;;;;;5023598;28;20870;-68
2023/04/02 07:22:18;;;;;;;16.03;13.87;;;5.20;99.90;;;;;;5028168;28;20467;-68
2023/04/02 07:24:45;;;;;;;24.83;20.10;;;5.20;99.90;;;;;;5024792;28;20883;-69
2023/04/02 07:27:13;;;;;;;27.83;19.90;;;5.20;99.90;;;;;;5022652;28;20867;-69
2023/04/02 07:29:42;;;;;;;27.83;19.70;;;5.10;99.90;;;;;;5025286;28;20507;-70
2023/04/02 07:32:10;;;;;;;34.90;20.00;;;5.10;99.90;;;;;;5025534;28;20466;-69
2023/04/02 07:34:37;;;;;;;21.93;16.23;;;5.20;99.90;;;;;;5025447;28;20583;-69
2023/04/02 07:37:04;;;;;;;23.57;17.33;;;5.20;99.90;;;;;;5022807;28;20472;-69
2023/04/02 07:39:31;;;;;;;21.47;17.40;;;5.20;99.90;;;;;;5021707;28;20470;-67
2023/04/02 07:41:59;;;;;;;27.30;19.93;;;5.20;99.90;;;;;;5024163;28;20492;-68
2023/04/02 07:44:26;;;;;;;22.80;18.63;;;5.30;99.90;;;;;;5021484;28;20471;-69
2023/04/02 07:46:55;;;;;;;28.50;18.73;;;5.20;99.90;;;;;;5027798;28;20679;-68
2023/04/02 07:49:22;;;;;;;21.60;15.00;;;5.20;99.90;;;;;;5017420;28;21034;-68
2023/04/02 07:51:49;;;;;;;21.20;15.70;;;5.10;99.90;;;;;;5019822;28;20914;-69
2023/04/02 07:54:16;;;;;;;20.63;15.80;;;5.20;99.90;;;;;;5017225;28;21329;-70
2023/04/02 07:56:43;;;;;;;25.30;16.63;;;5.20;99.90;;;;;;5025403;28;20474;-69
2023/04/02 07:59:10;;;;;;;18.73;16.33;;;5.20;99.90;;;;;;5024477;28;20486;-69
2023/04/02 08:01:39;;;;;;;24.83;15.90;;;5.20;99.90;;;;;;5019814;28;20662;-70
2023/04/02 08:04:16;;;;;;;21.70;15.30;;;5.20;99.90;;;;;;5019069;28;20522;-70
2023/04/02 08:06:43;;;;;;;21.70;17.23;;;5.20;99.90;;;;;;5022981;28;20464;-68
2023/04/02 08:09:10;;;;;;;25.10;15.30;;;5.20;99.90;;;;;;5026260;28;20550;-69
2023/04/02 08:11:37;;;;;;;21.97;16.40;;;5.40;99.90;;;;;;5022820;28;20878;-70
2023/04/02 08:14:04;;;;;;;19.00;15.20;;;5.30;99.90;;;;;;5024067;28;20906;-70
2023/04/02 08:16:44;;;;;;;18.43;15.93;;;5.30;99.90;;;;;;5021186;28;20462;-69
2023/04/02 08:19:12;;;;;;;17.60;14.90;;;5.40;99.90;;;;;;5022998;28;20562;-70
2023/04/02 08:21:39;;;;;;;16.40;12.00;;;5.40;99.90;;;;;;5025870;28;20859;-69
2023/04/02 08:24:06;;;;;;;19.37;13.63;;;5.40;99.90;;;;;;5024433;28;20976;-70
2023/04/02 08:26:33;;;;;;;13.20;11.83;;;5.30;99.90;;;;;;5017276;28;20522;-69
2023/04/02 08:29:00;;;;;;;13.93;12.53;;;5.20;99.90;;;;;;5023728;28;20994;-70
2023/04/02 08:31:29;;;;;;;22.73;13.57;;;5.30;99.90;;;;;;5021102;28;20468;-70
2023/04/02 08:33:56;;;;;;;18.10;14.70;;;5.40;99.90;;;;;;5024717;28;20471;-69
2023/04/02 08:36:29;;;;;;;16.00;14.27;;;5.50;99.90;;;;;;5024612;28;20490;-70
2023/04/02 08:38:56;;;;;;;12.90;11.90;;;5.40;99.90;;;;;;5015370;28;20471;-70
2023/04/02 08:41:40;;;;;;;15.67;14.00;;;5.40;99.90;;;;;;5008367;28;20492;-70
2023/04/02 08:44:31;;;;;;;13.43;12.17;;;5.20;99.90;;;;;;5020942;28;20465;-69
2023/04/02 08:47:02;;;;;;;12.70;11.43;;;5.30;99.90;;;;;;5023815;28;20470;-70
2023/04/02 08:49:32;;;;;;;15.53;14.00;;;5.30;99.90;;;;;;5022056;28;20499;-70
2023/04/02 08:52:00;;;;;;;21.00;14.70;;;5.30;99.90;;;;;;5020754;28;20483;-70
2023/04/02 08:54:30;;;;;;;16.00;14.30;;;5.40;99.90;;;;;;5022461;28;20463;-69
2023/04/02 08:57:01;;;;;;;20.13;14.00;;;5.50;99.90;;;;;;5022771;28;20461;-71
2023/04/02 08:59:33;;;;;;;20.87;15.60;;;5.60;99.90;;;;;;5023351;28;20476;-69
2023/04/02 09:02:12;;;;;;;16.23;14.87;;;5.60;99.90;;;;;;5022755;28;20464;-70
2023/04/02 09:04:40;;;;;;;15.00;13.40;;;5.70;99.90;;;;;;5022628;28;20476;-70
2023/04/02 09:07:12;;;;;;;15.90;14.30;;;5.60;99.90;;;;;;5023753;28;20463;-70
2023/04/02 09:09:39;;;;;;;15.13;13.83;;;5.60;99.90;;;;;;5020519;28;20499;-71
2023/04/02 09:12:16;;;;;;;18.43;13.43;;;5.80;99.90;;;;;;5022333;28;20464;-69
2023/04/02 09:14:49;;;;;;;15.30;13.93;;;5.70;99.90;;;;;;5018048;28;20952;-71
2023/04/02 09:17:19;;;;;;;16.93;15.43;;;5.80;99.90;;;;;;5021414;28;20994;-71
2023/04/02 09:19:53;;;;;;;16.73;15.20;;;6.00;99.90;;;;;;5019868;28;20476;-70
2023/04/02 09:22:23;;;;;;;18.47;15.17;;;6.00;99.90;;;;;;5023226;28;20464;-71
2023/04/02 09:24:52;;;;;;;18.73;15.60;;;6.00;99.90;;;;;;5023354;28;20472;-70
2023/04/02 09:27:20;;;;;;;12.70;11.70;;;6.00;99.90;;;;;;5023104;28;20514;-71
2023/04/02 09:29:49;;;;;;;19.73;14.43;;;5.80;99.90;;;;;;5022532;28;20495;-71
2023/04/02 09:32:39;;;;;;;17.17;15.80;;;5.90;99.90;;;;;;5021493;28;20467;-70
2023/04/02 09:35:14;;;;;;;13.83;12.70;;;5.90;99.90;;;;;;5019436;28;20538;-70
2023/04/02 09:37:43;;;;;;;15.20;14.03;;;6.10;99.90;;;;;;5019407;28;20471;-71
2023/04/02 09:40:24;;;;;;;16.03;14.57;;;6.20;99.90;;;;;;5017757;28;20555;-71
2023/04/02 09:43:03;;;;;;;16.63;15.20;;;6.40;99.90;;;;;;5023747;28;20491;-69
2023/04/02 09:45:31;;;;;;;16.47;14.97;;;6.50;99.90;;;;;;5021257;28;20464;-71
2023/04/02 09:47:58;;;;;;;16.13;14.83;;;6.40;99.90;;;;;;5021350;28;20496;-70
2023/04/02 09:50:30;;;;;;;16.60;15.13;;;6.20;99.90;;;;;;5018452;28;20556;-69
2023/04/02 09:52:59;;;;;;;17.40;15.93;;;6.30;99.90;;;;;;5019301;28;20459;-68
2023/04/02 09:55:27;;;;;;;16.67;15.33;;;6.50;99.90;;;;;;5017322;28;20648;-69
2023/04/02 09:58:12;;;;;;;16.37;15.27;;;6.50;99.90;;;;;;5019593;28;20469;-69
2023/04/02 10:00:40;;;;;;;16.73;15.53;;;6.40;99.90;;;;;;5025333;28;20467;-68
2023/04/02 10:03:23;;;;;;;18.37;16.57;;;6.40;99.90;;;;;;5016692;28;20465;-68
2023/04/02 10:06:03;;;;;;;18.40;16.90;;;6.60;99.90;;;;;;5023318;28;20858;-70
2023/04/02 10:08:33;;;;;;;18.27;16.57;;;6.70;99.90;;;;;;5022501;28;20488;-69
2023/04/02 10:11:01;;;;;;;19.77;18.20;;;6.50;99.90;;;;;;5020232;28;20964;-70
2023/04/02 10:13:31;;;;;;;19.70;15.83;;;6.60;99.90;;;;;;5020125;28;20469;-70
2023/04/02 10:16:03;;;;;;;19.37;17.67;;;6.70;99.90;;;;;;5019842;28;20473;-71
2023/04/02 10:18:43;;;;;;;20.70;18.80;;;6.60;99.90;;;;;;5017704;28;20456;-69
2023/04/02 10:21:13;;;;;;;19.70;18.20;;;6.60;99.90;;;;;;5023867;28;20461;-69
2023/04/02 10:23:41;;;;;;;19.03;17.63;;;6.70;99.90;;;;;;5022683;28;20465;-69
2023/04/02 10:26:22;;;;;;;19.43;17.70;;;6.80;99.90;;;;;;5017979;28;20467;-69
2023/04/02 10:29:04;;;;;;;17.93;16.73;;;6.70;99.90;;;;;;5017892;28;20576;-70
2023/04/02 10:31:39;;;;;;;20.23;18.63;;;6.80;99.90;;;;;;5018010;28;20472;-69
2023/04/02 10:34:14;;;;;;;21.20;19.30;;;7.00;99.90;;;;;;5013822;28;20485;-70
2023/04/02 10:36:49;;;;;;;20.80;19.30;;;7.00;99.90;;;;;;5018679;28;20545;-69
2023/04/02 10:39:22;;;;;;;19.00;17.70;;;7.00;99.90;;;;;;5018180;28;20465;-70
2023/04/02 10:41:56;;;;;;;19.93;18.40;;;6.90;99.90;;;;;;5015106;28;20503;-69
2023/04/02 10:44:46;;;;;;;21.20;19.23;;;6.90;99.90;;;;;;5021359;28;20539;-70
2023/04/02 10:47:25;;;;;;;19.40;18.10;;;7.00;99.90;;;;;;5020059;28;20460;-70
2023/04/02 10:50:03;;;;;;;19.07;17.67;;;7.40;99.90;;;;;;5017016;28;20507;-70
2023/04/02 10:52:35;;;;;;;21.07;18.90;;;7.70;99.90;;;;;;5015632;28;20464;-70
2023/04/02 10:55:07;;;;;;;20.70;19.10;;;7.80;99.90;;;;;;5020134;28;20464;-68
2023/04/02 10:57:39;;;;;;;21.43;18.97;;;7.70;99.90;;;;;;5020241;28;20465;-70
2023/04/02 11:00:16;;;;;;;20.20;18.67;;;7.70;99.90;;;;;;5023126;28;20468;-69
2023/04/02 11:02:48;;;;;;;18.47;17.30;;;7.90;99.90;;;;;;5025994;28;20464;-69
2023/04/02 11:05:20;;;;;;;19.87;18.30;;;7.80;99.90;;;;;;5020172;28;20461;-71
2023/04/02 11:07:57;;;;;;;17.77;16.60;;;7.90;99.90;;;;;;5017273;28;20515;-70
2023/04/02 11:10:28;;;;;;;19.70;18.30;;;7.90;99.90;;;;;;5020715;28;20510;-69
2023/04/02 11:12:59;;;;;;;20.60;19.00;;;7.90;99.90;;;;;;5022662;28;20514;-70
2023/04/02 11:15:27;;;;;;;19.47;18.17;;;7.70;99.90;;;;;;5011825;28;20813;-71
2023/04/02 11:17:55;;;;;;;19.77;18.47;;;7.60;99.90;;;;;;5018917;28;20471;-69
2023/04/02 11:20:54;;;;;;;18.70;17.40;;;7.80;99.90;;;;;;5017160;28;20466;-68
2023/04/02 11:23:22;;;;;;;19.40;17.90;;;8.10;99.90;;;;;;5012948;28;20465;-70
2023/04/02 11:25:50;;;;;;;18.57;16.80;;;8.00;99.90;;;;;;5021807;28;20912;-70
2023/04/02 11:28:28;;;;;;;17.93;16.63;;;8.00;99.90;;;;;;5015199;28;20458;-69
2023/04/02 11:30:56;;;;;;;17.27;16.20;;;7.90;99.90;;;;;;5020826;28;20468;-70
2023/04/02 11:33:40;;;;;;;17.67;16.33;;;8.10;99.90;;;;;;5022223;28;20522;-71
2023/04/02 11:36:40;;;;;;;16.93;15.83;;;8.00;99.90;;;;;;5023372;28;20508;-70
2023/04/02 11:39:10;;;;;;;17.10;16.00;;;7.80;99.90;;;;;;5013165;28;20484;-71
2023/04/02 11:42:03;;;;;;;17.10;15.90;;;7.90;99.90;;;;;;5013811;28;20512;-70
2023/04/02 11:44:30;;;;;;;17.47;16.07;;;8.00;99.90;;;;;;5001036;28;20489;-71
2023/04/02 11:47:17;;;;;;;17.03;15.93;;;8.00;99.90;;;;;;5019918;28;20469;-71
2023/04/02 11:50:03;;;;;;;17.70;16.37;;;7.80;99.90;;;;;;5017006;28;20504;-69
2023/04/02 11:52:37;;;;;;;19.07;17.57;;;7.90;99.90;;;;;;5022632;28;20479;-69
2023/04/02 11:55:27;;;;;;;16.43;15.40;;;8.10;99.90;;;;;;5017609;28;20468;-68
2023/04/02 11:58:31;;;;;;;17.63;16.43;;;7.70;99.90;;;;;;5024210;28;20510;-70
2023/04/02 12:01:29;;;;;;;17.30;16.20;;;7.80;99.90;;;;;;5013397;28;20471;-70
2023/04/02 12:04:30;;;;;;;17.27;16.37;;;8.20;99.90;;;;;;5010624;28;20469;-69
2023/04/02 12:07:25;;;;;;;18.17;17.00;;;8.20;99.90;;;;;;5022421;28;20461;-70
2023/04/02 12:09:54;;;;;;;18.10;16.70;;;7.80;99.90;;;;;;5020820;28;20496;-69
2023/04/02 12:12:27;;;;;;;18.87;17.27;;;7.80;99.90;;;;;;5023269;28;20503;-69
2023/04/02 12:14:56;;;;;;;18.80;17.70;;;7.60;99.90;;;;;;5023390;28;20469;-69
2023/04/02 12:17:30;;;;;;;18.10;16.80;;;7.80;99.90;;;;;;5025596;28;20489;-71
2023/04/02 12:20:00;;;;;;;17.70;16.53;;;8.00;99.90;;;;;;5022443;28;20467;-71
2023/04/02 12:22:30;;;;;;;19.17;17.73;;;7.90;99.90;;;;;;5021286;28;20547;-69
2023/04/02 12:25:00;;;;;;;18.47;17.27;;;7.80;99.90;;;;;;5011361;28;20460;-69
2023/04/02 12:27:28;;;;;;;18.63;17.13;;;7.70;99.90;;;;;;5024725;28;20556;-70
2023/04/02 12:29:56;;;;;;;17.33;16.17;;;7.60;99.90;;;;;;5024167;28;21029;-70
2023/04/02 12:32:29;;;;;;;18.63;16.90;;;7.70;99.90;;;;;;5018774;28;20473;-71
2023/04/02 12:35:00;;;;;;;17.80;16.80;;;8.00;99.90;;;;;;5019434;28;20528;-71
2023/04/02 12:37:30;;;;;;;19.17;17.87;;;7.90;99.90;;;;;;5016229;28;21643;-71
2023/04/02 12:39:58;;;;;;;17.20;16.20;;;8.00;99.90;;;;;;5017434;28;20473;-71
2023/04/02 12:42:31;;;;;;;18.20;16.70;;;8.30;99.90;;;;;;5025502;28;20493;-71
2023/04/02 12:44:59;;;;;;;17.37;16.10;;;8.30;99.90;;;;;;5019733;28;21035;-70
2023/04/02 12:47:28;;;;;;;17.67;16.17;;;8.50;99.90;;;;;;5024252;28;20498;-71
2023/04/02 12:49:58;;;;;;;16.67;15.67;;;8.30;99.90;;;;;;5022180;28;20500;-72
2023/04/02 12:52:27;;;;;;;17.77;16.77;;;8.10;99.90;;;;;;5022808;28;20522;-72
2023/04/02 12:54:58;;;;;;;17.77;16.40;;;8.50;99.90;;;;;;5022448;28;20457;-71
2023/04/02 12:57:33;;;;;;;16.57;15.57;;;8.40;99.90;;;;;;5019441;28;20457;-70
2023/04/02 13:00:04;;;;;;;17.43;16.03;;;8.40;99.90;;;;;;5017100;28;20952;-70
2023/04/02 13:02:43;;;;;;;17.70;16.53;;;8.70;99.90;;;;;;5024180;28;20475;-71